Time;durP1;ratioP1;P1;durP2;ratioP2;P2;SDS_P1;SDS_P2;PMS_P1;PMS_P2;Temp;Humidity;BMP_temperature;BMP_pressure;BME280_temperature;BME280_humidity;BME280_pressure;Samples;Min_cycle;Max_cycle;Signal;HPM_P1;HPM_P2
2024/01/28 00:01:56;;;;;;;31.67;25.88;;;-0.10;99.90;;;;;;5008249;28;20183;-55
2024/01/28 00:04:21;;;;;;;30.03;24.90;;;-0.10;99.90;;;;;;5011765;28;20182;-58
2024/01/28 00:06:47;;;;;;;29.17;25.20;;;-0.10;99.90;;;;;;5006516;28;20197;-48
2024/01/28 00:09:13;;;;;;;38.33;25.73;;;-0.20;99.90;;;;;;5018880;28;20241;-53
2024/01/28 00:11:39;;;;;;;29.10;25.67;;;-0.20;99.90;;;;;;5008633;28;20426;-53
2024/01/28 00:14:05;;;;;;;27.92;24.90;;;-0.20;99.90;;;;;;5008802;28;20199;-55
2024/01/28 00:16:31;;;;;;;29.75;25.95;;;-0.20;99.90;;;;;;5006798;28;20199;-56
2024/01/28 00:19:00;;;;;;;30.53;24.27;;;-0.20;99.90;;;;;;5015811;28;20633;-52
2024/01/28 00:21:26;;;;;;;30.40;25.77;;;-0.30;99.90;;;;;;5018336;28;20262;-56
2024/01/28 00:23:52;;;;;;;30.90;24.97;;;-0.30;99.90;;;;;;5021550;28;20380;-55
2024/01/28 00:26:17;;;;;;;27.63;24.73;;;-0.30;99.90;;;;;;5022012;28;20448;-55
2024/01/28 00:28:43;;;;;;;32.73;25.40;;;-0.30;99.90;;;;;;5022511;28;20222;-47
2024/01/28 00:31:10;;;;;;;28.57;24.43;;;-0.30;99.90;;;;;;5023344;28;20194;-56
2024/01/28 00:33:35;;;;;;;33.97;26.05;;;-0.30;99.90;;;;;;5023149;28;20244;-56
2024/01/28 00:36:01;;;;;;;27.40;23.10;;;-0.30;99.90;;;;;;5022052;28;20214;-53
2024/01/28 00:38:31;;;;;;;24.93;22.33;;;-0.30;99.90;;;;;;5021324;28;20205;-54
2024/01/28 00:41:00;;;;;;;25.58;22.98;;;-0.30;99.90;;;;;;5022599;28;20773;-55
2024/01/28 00:43:27;;;;;;;26.05;23.30;;;-0.30;99.90;;;;;;5023002;28;20253;-56
2024/01/28 00:45:53;;;;;;;25.02;21.90;;;-0.30;99.90;;;;;;5022587;28;20597;-54
2024/01/28 00:48:19;;;;;;;25.08;21.00;;;-0.30;99.90;;;;;;5023041;28;20186;-54
2024/01/28 00:50:45;;;;;;;22.50;20.30;;;-0.30;99.90;;;;;;5022716;28;20244;-54
2024/01/28 00:53:11;;;;;;;24.00;21.37;;;-0.40;99.90;;;;;;5022928;28;20342;-53
2024/01/28 00:55:36;;;;;;;25.63;20.97;;;-0.40;99.90;;;;;;5021983;28;20471;-54
2024/01/28 00:58:02;;;;;;;26.73;22.23;;;-0.40;99.90;;;;;;5022403;28;20186;-56
2024/01/28 01:00:28;;;;;;;28.50;21.43;;;-0.40;99.90;;;;;;5022562;28;20190;-54
2024/01/28 01:02:54;;;;;;;23.23;20.80;;;-0.40;99.90;;;;;;5022607;28;20179;-55
2024/01/28 01:05:20;;;;;;;24.00;21.50;;;-0.40;99.90;;;;;;5022944;28;20198;-51
2024/01/28 01:07:45;;;;;;;27.63;20.90;;;-0.50;99.90;;;;;;5004432;28;20187;-54
2024/01/28 01:10:11;;;;;;;21.00;18.80;;;-0.50;99.90;;;;;;5022346;28;20660;-53
2024/01/28 01:12:37;;;;;;;21.50;19.20;;;-0.50;99.90;;;;;;5022503;28;20186;-51
2024/01/28 01:15:03;;;;;;;23.53;21.03;;;-0.50;99.90;;;;;;5022138;28;20684;-53
2024/01/28 01:17:29;;;;;;;21.77;19.65;;;-0.50;99.90;;;;;;5022711;28;20417;-53
2024/01/28 01:19:54;;;;;;;23.92;20.33;;;-0.50;99.90;;;;;;5020716;28;20230;-46
2024/01/28 01:22:20;;;;;;;23.83;19.10;;;-0.50;99.90;;;;;;5004513;28;20199;-56
2024/01/28 01:24:46;;;;;;;22.33;20.00;;;-0.60;99.90;;;;;;5018904;28;20671;-52
2024/01/28 01:27:11;;;;;;;21.87;19.57;;;-0.60;99.90;;;;;;5015380;28;20278;-50
2024/01/28 01:29:37;;;;;;;21.70;19.40;;;-0.60;99.90;;;;;;5021637;28;20170;-56
2024/01/28 01:32:03;;;;;;;24.10;19.00;;;-0.60;99.90;;;;;;5012572;28;20187;-57
2024/01/28 01:34:28;;;;;;;21.77;19.20;;;-0.60;99.90;;;;;;5018315;28;20183;-52
2024/01/28 01:36:54;;;;;;;18.97;17.00;;;-0.60;99.90;;;;;;5016392;28;20504;-54
2024/01/28 01:39:19;;;;;;;18.70;16.93;;;-0.60;99.90;;;;;;5018732;28;20287;-55
2024/01/28 01:41:45;;;;;;;19.43;17.40;;;-0.60;99.90;;;;;;5020462;28;20238;-52
2024/01/28 01:44:11;;;;;;;20.33;18.30;;;-0.60;99.90;;;;;;5007376;28;20273;-55
2024/01/28 01:46:40;;;;;;;20.25;18.23;;;-0.60;99.90;;;;;;5012804;28;20540;-50
2024/01/28 01:49:07;;;;;;;18.92;16.95;;;-0.70;99.90;;;;;;5014704;28;20197;-55
2024/01/28 01:51:33;;;;;;;21.92;19.20;;;-0.70;99.90;;;;;;5019333;28;20218;-55
2024/01/28 01:53:59;;;;;;;18.45;16.73;;;-0.60;99.90;;;;;;5021033;28;20190;-47
2024/01/28 01:56:27;;;;;;;17.77;16.07;;;-0.60;99.90;;;;;;5015675;28;20208;-51
2024/01/28 01:58:53;;;;;;;19.05;17.00;;;-0.60;99.90;;;;;;5014559;28;20487;-40
2024/01/28 02:01:19;;;;;;;18.75;16.80;;;-0.60;99.90;;;;;;5020685;28;20268;-41
2024/01/28 02:03:45;;;;;;;19.77;16.48;;;-0.60;99.90;;;;;;5010375;28;20245;-39
2024/01/28 02:06:13;;;;;;;25.93;16.40;;;-0.60;99.90;;;;;;4997874;28;20198;-40
2024/01/28 02:08:39;;;;;;;18.70;16.58;;;-0.70;99.90;;;;;;5010693;28;20186;-40
2024/01/28 02:11:06;;;;;;;17.53;15.73;;;-0.70;99.90;;;;;;5017926;28;20195;-41
2024/01/28 02:13:32;;;;;;;17.92;16.23;;;-0.70;99.90;;;;;;5013387;28;20763;-39
2024/01/28 02:15:57;;;;;;;17.67;16.03;;;-0.80;99.90;;;;;;5020934;28;20213;-39
2024/01/28 02:18:23;;;;;;;17.47;15.87;;;-0.80;99.90;;;;;;5006634;28;21032;-39
2024/01/28 02:20:49;;;;;;;16.07;14.83;;;-0.80;99.90;;;;;;5019029;28;20343;-51
2024/01/28 02:23:21;;;;;;;18.60;15.90;;;-0.80;99.90;;;;;;5021362;28;20473;-53
2024/01/28 02:25:49;;;;;;;16.35;14.77;;;-0.80;99.90;;;;;;5002495;28;20708;-53
2024/01/28 02:28:16;;;;;;;17.40;15.80;;;-0.80;99.90;;;;;;5020769;28;20512;-52
2024/01/28 02:30:42;;;;;;;15.75;14.27;;;-0.80;99.90;;;;;;5021074;28;20256;-56
2024/01/28 02:33:08;;;;;;;17.13;15.43;;;-0.80;99.90;;;;;;5020320;28;20560;-54
2024/01/28 02:35:34;;;;;;;18.97;15.43;;;-0.80;99.90;;;;;;5002894;28;20213;-55
2024/01/28 02:37:59;;;;;;;16.63;15.43;;;-0.90;99.90;;;;;;5020683;28;20190;-49
2024/01/28 02:40:25;;;;;;;17.30;15.57;;;-0.90;99.90;;;;;;5020732;28;20543;-54
2024/01/28 02:42:51;;;;;;;16.90;15.30;;;-0.90;99.90;;;;;;5020869;28;20182;-54
2024/01/28 02:45:18;;;;;;;17.03;15.50;;;-0.90;99.90;;;;;;5020322;28;20186;-56
2024/01/28 02:47:43;;;;;;;16.40;14.82;;;-0.90;99.90;;;;;;5019867;28;20666;-57
2024/01/28 02:50:09;;;;;;;16.83;15.20;;;-0.90;99.90;;;;;;5018666;28;20214;-53
2024/01/28 02:52:35;;;;;;;15.87;14.33;;;-0.80;99.90;;;;;;5019344;28;20274;-55
2024/01/28 02:55:00;;;;;;;14.60;13.40;;;-0.80;99.90;;;;;;5020576;28;20213;-52
2024/01/28 02:57:26;;;;;;;15.97;14.57;;;-0.80;99.90;;;;;;5020139;28;20178;-50
2024/01/28 02:59:52;;;;;;;16.85;15.45;;;-0.80;99.90;;;;;;5020626;28;20179;-56
2024/01/28 03:02:18;;;;;;;15.97;14.43;;;-0.80;99.90;;;;;;5017096;28;20237;-58
2024/01/28 03:04:44;;;;;;;15.35;13.95;;;-0.80;99.90;;;;;;5020366;28;20703;-56
2024/01/28 03:07:09;;;;;;;15.53;14.17;;;-0.70;99.90;;;;;;5020279;28;20200;-52
2024/01/28 03:09:35;;;;;;;17.30;13.60;;;-0.70;99.90;;;;;;5019992;28;20178;-54
2024/01/28 03:12:34;;;;;;;15.40;13.87;;;-0.60;99.90;;;;;;5002304;28;20186;-51
2024/01/28 03:14:59;;;;;;;16.95;14.18;;;-0.60;99.90;;;;;;5018664;28;20688;-56
2024/01/28 03:17:25;;;;;;;16.70;15.10;;;-0.60;99.90;;;;;;5020082;28;20182;-56
2024/01/28 03:19:51;;;;;;;15.67;14.30;;;-0.60;99.90;;;;;;5019127;28;20389;-54
2024/01/28 03:22:16;;;;;;;16.00;14.47;;;-0.70;99.90;;;;;;5019559;28;20189;-55
2024/01/28 03:24:42;;;;;;;15.60;14.20;;;-0.70;99.90;;;;;;5019864;28;20657;-56
2024/01/28 03:27:07;;;;;;;15.97;14.40;;;-0.70;99.90;;;;;;5019677;28;20186;-39
2024/01/28 03:29:33;;;;;;;14.63;13.33;;;-0.70;99.90;;;;;;5020168;28;20638;-57
2024/01/28 03:31:59;;;;;;;15.37;13.60;;;-0.80;99.90;;;;;;5001800;28;20174;-54
2024/01/28 03:34:24;;;;;;;14.20;13.00;;;-0.80;99.90;;;;;;5001742;28;20599;-50
2024/01/28 03:36:50;;;;;;;13.90;12.60;;;-0.80;99.90;;;;;;5019610;28;20489;-55
2024/01/28 03:39:15;;;;;;;18.50;14.80;;;-0.90;99.90;;;;;;5019485;28;20179;-41
2024/01/28 03:41:41;;;;;;;17.20;13.97;;;-0.90;99.90;;;;;;5019689;28;20645;-39
2024/01/28 03:44:07;;;;;;;14.33;13.23;;;-0.90;99.90;;;;;;5019885;28;20178;-40
2024/01/28 03:46:34;;;;;;;14.63;13.33;;;-1.00;99.90;;;;;;5019597;28;20256;-39
2024/01/28 03:49:00;;;;;;;17.67;13.80;;;-1.00;99.90;;;;;;5019897;28;20197;-40
2024/01/28 03:51:26;;;;;;;14.67;13.43;;;-1.00;99.90;;;;;;5019043;28;20182;-39
2024/01/28 03:53:51;;;;;;;14.87;13.77;;;-1.00;99.90;;;;;;5018924;28;20665;-39
2024/01/28 03:56:17;;;;;;;15.00;13.77;;;-1.00;99.90;;;;;;5019601;28;20302;-39
2024/01/28 03:58:42;;;;;;;14.97;13.60;;;-1.00;99.90;;;;;;5019381;28;20182;-39
2024/01/28 04:01:08;;;;;;;18.43;15.10;;;-1.00;99.90;;;;;;5019330;28;20193;-40
2024/01/28 04:03:35;;;;;;;14.67;13.27;;;-1.00;99.90;;;;;;5019598;28;20182;-40
2024/01/28 04:06:01;;;;;;;15.55;14.00;;;-1.00;99.90;;;;;;5019558;28;20193;-39
2024/01/28 04:08:27;;;;;;;14.65;13.15;;;-1.00;99.90;;;;;;5019205;28;20623;-40
2024/01/28 04:10:52;;;;;;;13.80;12.80;;;-1.00;99.90;;;;;;5019590;28;20194;-42
2024/01/28 04:13:18;;;;;;;15.80;13.47;;;-0.90;99.90;;;;;;5019193;28;20545;-40
2024/01/28 04:15:43;;;;;;;16.50;15.00;;;-0.90;99.90;;;;;;5019283;28;20214;-40
2024/01/28 04:18:09;;;;;;;19.83;14.43;;;-0.90;99.90;;;;;;5018960;28;20240;-39
2024/01/28 04:20:35;;;;;;;16.03;14.63;;;-0.90;99.90;;;;;;4995463;28;20238;-40
2024/01/28 04:23:00;;;;;;;15.27;14.07;;;-0.90;99.90;;;;;;4996906;28;20198;-39
2024/01/28 04:25:26;;;;;;;16.00;14.23;;;-0.90;99.90;;;;;;5018282;28;20535;-40
2024/01/28 04:27:51;;;;;;;14.37;13.17;;;-0.90;99.90;;;;;;5016171;28;20191;-39
2024/01/28 04:30:17;;;;;;;16.23;13.60;;;-0.90;99.90;;;;;;5003930;28;20404;-39
2024/01/28 04:32:44;;;;;;;17.30;13.83;;;-0.90;99.90;;;;;;5006392;28;20605;-39
2024/01/28 04:35:13;;;;;;;14.48;13.38;;;-0.90;99.90;;;;;;4990450;28;20214;-39
2024/01/28 04:37:39;;;;;;;14.18;12.90;;;-0.90;99.90;;;;;;5011148;28;20551;-39
2024/01/28 04:40:06;;;;;;;14.00;12.82;;;-0.90;99.90;;;;;;5011355;28;20707;-38
2024/01/28 04:42:32;;;;;;;13.73;12.80;;;-1.00;99.90;;;;;;5013987;28;20633;-39
2024/01/28 04:44:58;;;;;;;15.23;13.50;;;-1.00;99.90;;;;;;5009261;28;20249;-39
2024/01/28 04:47:23;;;;;;;14.67;13.53;;;-1.00;99.90;;;;;;5016712;28;20184;-39
2024/01/28 04:49:49;;;;;;;14.80;13.50;;;-1.00;99.90;;;;;;5008119;28;20245;-38
2024/01/28 04:52:15;;;;;;;13.70;12.70;;;-1.00;99.90;;;;;;4986811;28;20194;-39
2024/01/28 04:54:40;;;;;;;15.40;13.40;;;-1.00;99.90;;;;;;5008551;28;20679;-39
2024/01/28 04:57:06;;;;;;;14.87;13.57;;;-1.00;99.90;;;;;;5010864;28;20187;-38
2024/01/28 04:59:31;;;;;;;15.37;14.07;;;-1.00;99.90;;;;;;5009193;28;20636;-39
2024/01/28 05:01:57;;;;;;;16.50;14.27;;;-1.00;99.90;;;;;;5016995;28;20634;-38
2024/01/28 05:04:23;;;;;;;15.90;14.33;;;-1.00;99.90;;;;;;5010431;28;20317;-55
2024/01/28 05:06:49;;;;;;;14.37;12.93;;;-1.00;99.90;;;;;;5005649;28;20180;-52
2024/01/28 05:09:16;;;;;;;14.90;13.53;;;-1.00;99.90;;;;;;5016312;28;20380;-50
2024/01/28 05:11:42;;;;;;;14.93;13.60;;;-1.00;99.90;;;;;;5017260;28;20450;-56
2024/01/28 05:14:08;;;;;;;15.77;14.18;;;-1.00;99.90;;;;;;5021906;28;20228;-51
2024/01/28 05:16:34;;;;;;;16.70;13.80;;;-1.00;99.90;;;;;;5012882;28;20314;-56
2024/01/28 05:19:01;;;;;;;16.30;14.80;;;-1.00;99.90;;;;;;5012605;28;20464;-56
2024/01/28 05:21:27;;;;;;;14.88;13.63;;;-1.00;99.90;;;;;;5014047;28;20171;-51
2024/01/28 05:23:53;;;;;;;16.83;13.73;;;-1.00;99.90;;;;;;5008776;28;20656;-51
2024/01/28 05:26:19;;;;;;;14.87;12.97;;;-1.00;99.90;;;;;;5006662;28;20199;-55
2024/01/28 05:28:47;;;;;;;13.57;12.37;;;-1.00;99.90;;;;;;5007747;28;20509;-57
2024/01/28 05:31:13;;;;;;;15.30;13.85;;;-1.00;99.90;;;;;;5017871;28;20190;-54
2024/01/28 05:33:39;;;;;;;14.03;12.73;;;-1.00;99.90;;;;;;5008963;28;20708;-51
2024/01/28 05:36:14;;;;;;;16.40;14.73;;;-1.00;99.90;;;;;;5019753;28;20477;-54
2024/01/28 05:38:40;;;;;;;15.00;13.65;;;-1.00;99.90;;;;;;5016085;28;20461;-51
2024/01/28 05:41:07;;;;;;;14.95;13.30;;;-1.00;99.90;;;;;;5021197;28;20266;-55
2024/01/28 05:43:33;;;;;;;21.77;13.93;;;-1.10;99.90;;;;;;5011779;28;20233;-55
2024/01/28 05:46:00;;;;;;;14.87;13.67;;;-1.10;99.90;;;;;;5004074;28;20191;-56
2024/01/28 05:48:25;;;;;;;14.90;13.50;;;-1.10;99.90;;;;;;5016767;28;20470;-42
2024/01/28 05:50:51;;;;;;;15.23;13.90;;;-1.20;99.90;;;;;;5020006;28;20442;-55
2024/01/28 05:53:17;;;;;;;15.30;13.90;;;-1.20;99.90;;;;;;5003483;28;20673;-52
2024/01/28 05:55:42;;;;;;;15.47;14.10;;;-1.20;99.90;;;;;;4992559;28;20260;-55
2024/01/28 05:58:08;;;;;;;16.20;13.60;;;-1.20;99.90;;;;;;5003111;28;20194;-53
2024/01/28 06:00:34;;;;;;;14.63;13.43;;;-1.20;99.90;;;;;;5010908;28;20591;-57
2024/01/28 06:02:59;;;;;;;15.73;14.10;;;-1.20;99.90;;;;;;5012342;28;20828;-52
2024/01/28 06:05:25;;;;;;;16.80;14.93;;;-1.20;99.90;;;;;;5019834;28;20417;-54
2024/01/28 06:07:51;;;;;;;14.80;13.70;;;-1.20;99.90;;;;;;5015685;28;20196;-56
2024/01/28 06:10:16;;;;;;;15.37;13.77;;;-1.20;99.90;;;;;;5013944;28;20453;-53
2024/01/28 06:12:42;;;;;;;15.67;13.97;;;-1.10;99.90;;;;;;5011462;28;20733;-56
2024/01/28 06:15:08;;;;;;;15.17;13.97;;;-1.10;99.90;;;;;;5018200;28;20207;-50
2024/01/28 06:17:38;;;;;;;14.90;13.73;;;-1.10;99.90;;;;;;5019476;28;20183;-50
2024/01/28 06:20:05;;;;;;;15.23;13.65;;;-1.10;99.90;;;;;;5017471;28;20230;-55
2024/01/28 06:22:31;;;;;;;15.48;14.05;;;-1.10;99.90;;;;;;5019700;28;20170;-53
2024/01/28 06:25:00;;;;;;;15.23;13.60;;;-1.10;99.90;;;;;;5020942;28;20358;-54
2024/01/28 06:27:26;;;;;;;15.73;13.98;;;-1.10;99.90;;;;;;5021286;28;20430;-55
2024/01/28 06:29:52;;;;;;;15.17;13.73;;;-1.20;99.90;;;;;;5021001;28;20182;-56
2024/01/28 06:32:18;;;;;;;17.53;16.10;;;-1.20;99.90;;;;;;5020706;28;20517;-57
2024/01/28 06:34:44;;;;;;;16.77;15.27;;;-1.20;99.90;;;;;;5020592;28;20308;-57
2024/01/28 06:37:10;;;;;;;15.80;13.50;;;-1.20;99.90;;;;;;5001825;28;20448;-55
2024/01/28 06:39:35;;;;;;;15.83;14.50;;;-1.20;99.90;;;;;;5019901;28;20369;-52
2024/01/28 06:42:01;;;;;;;14.47;13.10;;;-1.20;99.90;;;;;;5019785;28;20740;-53
2024/01/28 06:44:26;;;;;;;14.73;13.30;;;-1.20;99.90;;;;;;5020112;28;20178;-55
2024/01/28 06:46:52;;;;;;;14.83;13.57;;;-1.20;99.90;;;;;;5021343;28;20236;-54
2024/01/28 06:49:18;;;;;;;15.03;13.60;;;-1.20;99.90;;;;;;5020730;28;20190;-54
2024/01/28 06:51:43;;;;;;;15.23;13.87;;;-1.20;99.90;;;;;;5021217;28;20183;-54
2024/01/28 06:54:12;;;;;;;13.97;12.97;;;-1.30;99.90;;;;;;5019921;28;20201;-56
2024/01/28 06:56:38;;;;;;;14.90;13.85;;;-1.30;99.90;;;;;;5019870;28;20220;-53
2024/01/28 06:59:03;;;;;;;16.03;14.50;;;-1.30;99.90;;;;;;5020946;28;20614;-57
2024/01/28 07:01:29;;;;;;;15.53;13.77;;;-1.30;99.90;;;;;;5020092;28;20190;-56
2024/01/28 07:03:55;;;;;;;13.87;12.77;;;-1.30;99.90;;;;;;5020263;28;20190;-54
2024/01/28 07:06:21;;;;;;;15.85;14.32;;;-1.30;99.90;;;;;;5020172;28;20186;-57
2024/01/28 07:08:47;;;;;;;14.87;13.30;;;-1.40;99.90;;;;;;5019754;28;20182;-48
2024/01/28 07:11:12;;;;;;;15.27;13.43;;;-1.30;99.90;;;;;;5020129;28;20421;-56
2024/01/28 07:13:38;;;;;;;15.50;14.10;;;-1.30;99.90;;;;;;5019744;28;20610;-57
2024/01/28 07:16:05;;;;;;;14.70;13.20;;;-1.30;99.90;;;;;;5002258;28;20692;-55
2024/01/28 07:18:30;;;;;;;13.75;12.55;;;-1.30;99.90;;;;;;5019959;28;20637;-53
2024/01/28 07:20:56;;;;;;;14.83;13.50;;;-1.30;99.90;;;;;;5019805;28;20252;-48
2024/01/28 07:23:22;;;;;;;14.50;13.30;;;-1.30;99.90;;;;;;5015296;28;20182;-55
2024/01/28 07:25:47;;;;;;;13.80;12.87;;;-1.30;99.90;;;;;;5011632;28;20511;-57
2024/01/28 07:28:13;;;;;;;15.30;14.00;;;-1.30;99.90;;;;;;5005298;28;20233;-52
2024/01/28 07:30:38;;;;;;;14.67;13.47;;;-1.20;99.90;;;;;;4983268;28;20276;-57
2024/01/28 07:33:07;;;;;;;15.77;13.50;;;-1.20;99.90;;;;;;5008418;28;20269;-52
2024/01/28 07:35:34;;;;;;;14.52;13.35;;;-1.10;99.90;;;;;;5016251;28;20224;-49
2024/01/28 07:38:00;;;;;;;14.93;13.63;;;-1.20;99.90;;;;;;5015401;28;20194;-54
2024/01/28 07:40:25;;;;;;;15.17;13.70;;;-1.10;99.90;;;;;;5011619;28;20193;-55
2024/01/28 07:42:51;;;;;;;17.53;14.60;;;-1.10;99.90;;;;;;5011487;28;20995;-51
2024/01/28 07:45:17;;;;;;;21.57;15.37;;;-1.00;99.90;;;;;;4988746;28;20580;-53
2024/01/28 07:47:42;;;;;;;16.43;14.83;;;-0.90;99.90;;;;;;5006692;28;20245;-39
2024/01/28 07:50:08;;;;;;;19.07;13.60;;;-0.90;99.90;;;;;;5008223;28;20191;-40
2024/01/28 07:52:34;;;;;;;19.90;15.88;;;-0.80;99.90;;;;;;5005694;28;20179;-40
2024/01/28 07:55:00;;;;;;;17.43;15.83;;;-0.80;99.90;;;;;;5003288;28;20183;-39
2024/01/28 07:57:25;;;;;;;16.23;14.50;;;-0.80;99.90;;;;;;5010477;28;20209;-39
2024/01/28 07:59:51;;;;;;;16.67;14.33;;;-0.70;99.90;;;;;;5010101;28;20790;-39
2024/01/28 08:02:16;;;;;;;14.80;13.40;;;-0.60;99.90;;;;;;5004324;28;20221;-39
2024/01/28 08:04:46;;;;;;;19.20;15.57;;;-0.50;99.90;;;;;;5011258;28;20186;-42
2024/01/28 08:07:11;;;;;;;19.27;14.90;;;-0.40;99.90;;;;;;5018802;28;20831;-39
2024/01/28 08:09:37;;;;;;;16.10;14.77;;;-0.20;99.90;;;;;;5013393;28;20184;-41
2024/01/28 08:12:03;;;;;;;17.23;15.47;;;-0.10;99.90;;;;;;5010951;28;20573;-39
2024/01/28 08:14:29;;;;;;;17.70;15.27;;;0.00;99.90;;;;;;5014957;28;20183;-40
2024/01/28 08:16:55;;;;;;;21.70;17.77;;;0.20;99.90;;;;;;4986890;28;20235;-40
2024/01/28 08:19:20;;;;;;;18.40;16.50;;;0.40;99.90;;;;;;5008295;28;20242;-39
2024/01/28 08:21:47;;;;;;;17.33;15.60;;;0.60;99.90;;;;;;5019033;28;20423;-40
2024/01/28 08:24:13;;;;;;;18.55;16.30;;;0.90;99.90;;;;;;5019087;28;20330;-40
2024/01/28 08:26:38;;;;;;;19.97;16.60;;;1.20;99.90;;;;;;5019537;28;20193;-39
2024/01/28 08:29:04;;;;;;;20.90;18.00;;;1.50;99.90;;;;;;5018966;28;20654;-40
2024/01/28 08:31:30;;;;;;;24.90;17.93;;;1.90;99.90;;;;;;5018466;28;20197;-40
2024/01/28 08:33:55;;;;;;;19.63;17.73;;;2.20;99.90;;;;;;5018766;28;20186;-42
2024/01/28 08:36:21;;;;;;;19.57;17.67;;;2.60;99.90;;;;;;5017759;28;20460;-41
2024/01/28 08:38:47;;;;;;;20.20;18.30;;;3.00;99.90;;;;;;5019146;28;20166;-42
2024/01/28 08:41:12;;;;;;;23.13;17.93;;;3.40;99.90;;;;;;5018345;28;20202;-39
2024/01/28 08:43:38;;;;;;;19.07;17.20;;;3.80;71.90;;;;;;5017912;28;20801;-44
2024/01/28 08:46:04;;;;;;;19.20;17.50;;;4.20;45.80;;;;;;5022173;28;20212;-39
2024/01/28 08:48:30;;;;;;;19.87;16.80;;;4.60;11.10;;;;;;5023072;28;20290;-39
2024/01/28 08:50:55;;;;;;;18.87;16.90;;;5.10;5.10;;;;;;5022525;28;20187;-39
2024/01/28 08:53:21;;;;;;;18.63;16.83;;;5.50;1.00;;;;;;5023261;28;20780;-39
2024/01/28 08:55:47;;;;;;;18.50;16.70;;;6.00;1.00;;;;;;5022583;28;20209;-41
2024/01/28 08:58:13;;;;;;;17.13;15.70;;;6.50;1.00;;;;;;5022845;28;20183;-41
2024/01/28 09:00:39;;;;;;;17.03;15.67;;;6.90;99.90;;;;;;5022637;28;21340;-39
2024/01/28 09:03:05;;;;;;;16.87;15.33;;;7.30;1.00;;;;;;5023080;28;20187;-39
2024/01/28 09:05:31;;;;;;;16.10;14.93;;;7.70;99.90;;;;;;5022446;28;20503;-42
2024/01/28 09:07:56;;;;;;;17.90;16.30;;;7.90;1.00;;;;;;5022920;28;20417;-39
2024/01/28 09:10:23;;;;;;;16.57;15.00;;;8.30;99.90;;;;;;5022323;28;20408;-42
2024/01/28 09:12:49;;;;;;;15.77;14.47;;;8.60;99.90;;;;;;5022981;28;20222;-40
2024/01/28 09:15:14;;;;;;;16.30;14.70;;;9.10;88.70;;;;;;5022337;28;20547;-39
2024/01/28 09:17:41;;;;;;;15.33;13.93;;;9.50;1.00;;;;;;5022759;28;20182;-39
2024/01/28 09:20:07;;;;;;;15.47;14.30;;;9.60;1.00;;;;;;5013436;28;20241;-39
2024/01/28 09:22:36;;;;;;;15.10;13.90;;;9.80;1.00;;;;;;5014545;28;20973;-40
2024/01/28 09:25:06;;;;;;;14.63;13.33;;;10.10;1.00;;;;;;5019622;28;20405;-42
2024/01/28 09:27:32;;;;;;;14.07;12.97;;;10.60;1.00;;;;;;5016958;28;20492;-42
2024/01/28 09:29:57;;;;;;;14.13;13.13;;;11.00;1.00;;;;;;5022068;28;20420;-47
2024/01/28 09:32:24;;;;;;;12.93;11.87;;;11.20;1.00;;;;;;5008342;28;20194;-41
2024/01/28 09:34:51;;;;;;;13.30;12.23;;;11.30;1.00;;;;;;5017218;28;20473;-39
2024/01/28 09:37:17;;;;;;;13.60;12.60;;;11.60;1.00;;;;;;5013759;28;20742;-42
2024/01/28 09:39:43;;;;;;;13.83;12.73;;;11.90;1.00;;;;;;5019020;28;20451;-44
2024/01/28 09:42:36;;;;;;;14.30;13.20;;;12.30;1.00;;;;;;5014119;28;20436;-41
2024/01/28 09:45:02;;;;;;;13.17;12.07;;;12.60;1.00;;;;;;5008211;28;20739;-40
2024/01/28 09:47:32;;;;;;;13.23;12.20;;;12.90;1.00;;;;;;5021273;28;20455;-53
2024/01/28 09:49:59;;;;;;;13.53;12.63;;;13.30;1.00;;;;;;5018811;28;20426;-56
2024/01/28 09:52:25;;;;;;;12.53;11.60;;;13.20;99.90;;;;;;5004623;28;20635;-57
2024/01/28 09:54:51;;;;;;;12.80;12.00;;;13.40;99.90;;;;;;5011040;28;20721;-55
2024/01/28 09:57:16;;;;;;;12.93;12.03;;;13.70;99.90;;;;;;5014746;28;20202;-58
2024/01/28 09:59:43;;;;;;;12.90;12.00;;;13.70;99.90;;;;;;5006116;28;20615;-52
2024/01/28 10:02:11;;;;;;;13.10;12.10;;;13.80;99.90;;;;;;5018613;28;20185;-49
2024/01/28 10:04:37;;;;;;;13.83;12.73;;;14.10;99.90;;;;;;5014082;28;20505;-52
2024/01/28 10:07:03;;;;;;;15.50;14.40;;;14.10;99.90;;;;;;5018885;28;20895;-56
2024/01/28 10:09:30;;;;;;;13.30;12.40;;;14.20;99.90;;;;;;5012134;28;20198;-56
2024/01/28 10:12:02;;;;;;;13.73;12.73;;;14.40;99.90;;;;;;5008634;28;20179;-57
2024/01/28 10:14:27;;;;;;;13.70;12.73;;;14.70;99.90;;;;;;5013725;28;20424;-57
2024/01/28 10:16:56;;;;;;;14.43;13.20;;;14.80;99.90;;;;;;5006491;28;20465;-56
2024/01/28 10:19:22;;;;;;;13.37;12.37;;;14.90;99.90;;;;;;5018182;28;20833;-54
2024/01/28 10:21:48;;;;;;;13.77;12.87;;;14.90;99.90;;;;;;5020661;28;20433;-58
2024/01/28 10:24:16;;;;;;;14.20;13.00;;;14.90;99.90;;;;;;5003018;28;20524;-54
2024/01/28 10:26:42;;;;;;;14.50;13.40;;;15.30;99.90;;;;;;5021312;28;20189;-54
2024/01/28 10:29:09;;;;;;;14.43;13.37;;;15.30;99.90;;;;;;5020857;28;20441;-54
2024/01/28 10:31:34;;;;;;;13.97;12.97;;;15.60;99.90;;;;;;5020517;28;20194;-59
2024/01/28 10:34:00;;;;;;;14.87;13.80;;;15.90;99.90;;;;;;5021199;28;20950;-45
2024/01/28 10:36:27;;;;;;;15.07;14.07;;;16.20;99.90;;;;;;5021047;28;20617;-55
2024/01/28 10:39:00;;;;;;;14.00;13.00;;;16.40;99.90;;;;;;5020811;28;20217;-47
2024/01/28 10:41:25;;;;;;;14.27;13.27;;;16.40;99.90;;;;;;5020158;28;20444;-54
2024/01/28 10:44:00;;;;;;;14.33;13.27;;;16.50;99.90;;;;;;5019972;28;20433;-56
2024/01/28 10:46:39;;;;;;;13.50;12.60;;;16.50;99.90;;;;;;5020100;28;20280;-52
2024/01/28 10:49:06;;;;;;;14.00;13.10;;;17.00;99.90;;;;;;5020020;28;20455;-58
2024/01/28 10:51:37;;;;;;;13.53;12.63;;;17.00;99.90;;;;;;5018989;28;20429;-50
2024/01/28 10:54:04;;;;;;;13.73;12.53;;;17.10;99.90;;;;;;5020599;28;20463;-54
2024/01/28 10:56:38;;;;;;;13.10;12.30;;;17.20;99.90;;;;;;5020381;28;20490;-54
2024/01/28 10:59:04;;;;;;;13.60;12.73;;;17.10;99.90;;;;;;5002588;28;20428;-52
2024/01/28 11:01:31;;;;;;;13.70;12.80;;;17.50;99.90;;;;;;5020189;28;20406;-56
2024/01/28 11:03:58;;;;;;;14.07;13.03;;;17.60;99.90;;;;;;5020291;28;20509;-52
2024/01/28 11:06:29;;;;;;;14.10;13.20;;;17.70;99.90;;;;;;5020200;28;20412;-54
2024/01/28 11:08:58;;;;;;;13.30;12.30;;;17.60;99.90;;;;;;5020112;28;20475;-55
2024/01/28 11:11:24;;;;;;;14.23;13.37;;;17.70;99.90;;;;;;5020371;28;20512;-57
2024/01/28 11:13:49;;;;;;;14.40;13.40;;;17.60;99.90;;;;;;5020192;28;20448;-54
2024/01/28 11:16:16;;;;;;;14.70;13.50;;;17.80;99.90;;;;;;5020143;28;20460;-47
2024/01/28 11:18:56;;;;;;;14.80;13.60;;;18.10;99.90;;;;;;5019878;28;20182;-56
2024/01/28 11:21:22;;;;;;;14.40;13.40;;;17.90;99.90;;;;;;5011679;28;20424;-53
2024/01/28 11:23:48;;;;;;;13.80;12.83;;;17.90;99.90;;;;;;5008310;28;20429;-55
2024/01/28 11:26:18;;;;;;;13.40;12.30;;;18.00;99.90;;;;;;5006497;28;20198;-50
2024/01/28 11:28:48;;;;;;;13.13;12.23;;;18.10;99.90;;;;;;5002238;28;20472;-53
2024/01/28 11:31:20;;;;;;;13.70;12.63;;;18.10;99.90;;;;;;5015377;28;20421;-53
2024/01/28 11:33:46;;;;;;;14.13;13.00;;;18.20;99.90;;;;;;5010381;28;20868;-48
2024/01/28 11:36:17;;;;;;;13.77;12.63;;;18.30;99.90;;;;;;5015597;28;20496;-49
2024/01/28 11:38:46;;;;;;;13.03;12.13;;;18.10;99.90;;;;;;5008006;28;21249;-53
2024/01/28 11:41:13;;;;;;;13.23;12.00;;;18.20;99.90;;;;;;5004631;28;20563;-48
2024/01/28 11:43:39;;;;;;;12.20;11.30;;;18.50;99.90;;;;;;5005965;28;20767;-53
2024/01/28 11:46:06;;;;;;;13.60;12.70;;;18.30;99.90;;;;;;5012179;28;20421;-48
2024/01/28 11:48:33;;;;;;;12.50;11.60;;;18.30;99.90;;;;;;5007652;28;20618;-54
2024/01/28 11:50:58;;;;;;;13.30;12.50;;;18.30;99.90;;;;;;5012255;28;21030;-41
2024/01/28 11:53:24;;;;;;;13.10;12.23;;;18.60;99.90;;;;;;5008058;28;20488;-41
2024/01/28 11:55:50;;;;;;;13.90;12.80;;;18.50;99.90;;;;;;5011888;28;20202;-40
2024/01/28 11:58:16;;;;;;;13.30;12.50;;;18.50;99.90;;;;;;5008188;28;20175;-40
2024/01/28 12:00:42;;;;;;;12.97;12.07;;;18.40;99.90;;;;;;5006963;28;20443;-49
2024/01/28 12:03:07;;;;;;;12.90;12.00;;;18.20;99.90;;;;;;5009164;28;20964;-48
2024/01/28 12:05:33;;;;;;;13.10;12.30;;;18.30;99.90;;;;;;5017502;28;20182;-56
2024/01/28 12:07:58;;;;;;;12.23;11.33;;;18.60;99.90;;;;;;5010930;28;20593;-56
2024/01/28 12:10:24;;;;;;;12.07;11.30;;;18.70;99.90;;;;;;5006640;28;20182;-44
2024/01/28 12:12:50;;;;;;;12.93;12.13;;;19.00;99.90;;;;;;5012369;28;20254;-56
2024/01/28 12:15:16;;;;;;;12.17;11.50;;;19.20;99.90;;;;;;5016597;28;20567;-56
2024/01/28 12:17:43;;;;;;;12.47;11.73;;;19.20;99.90;;;;;;5014143;28;20437;-52
2024/01/28 12:20:22;;;;;;;12.00;11.30;;;19.20;99.90;;;;;;5018764;28;20314;-57
2024/01/28 12:22:48;;;;;;;13.10;12.30;;;19.00;99.90;;;;;;5011825;28;20892;-51
2024/01/28 12:25:19;;;;;;;11.67;11.03;;;19.00;99.90;;;;;;5005477;28;20456;-42